createdAt,value
2018-09-03T00:01:33.292Z,100376.84
2018-09-03T00:04:04.357Z,100371.16
2018-09-03T00:06:35.424Z,100364.84
2018-09-03T00:09:10.209Z,100355.84
2018-09-03T00:11:41.285Z,100353.50
2018-09-03T00:14:12.365Z,100350.62
2018-09-03T00:16:43.339Z,100344.95
2018-09-03T00:19:14.368Z,100345.44
2018-09-03T00:21:45.374Z,100340.59
2018-09-03T00:27:00.467Z,100348.91
2018-09-03T00:29:31.444Z,100348.23
2018-09-03T00:32:07.482Z,100341.05
2018-09-03T00:34:43.654Z,100344.75
2018-09-03T00:37:19.625Z,100336.92
2018-09-03T00:39:55.542Z,100346.09
2018-09-03T00:42:31.612Z,100348.61
2018-09-03T00:45:07.708Z,100354.95
2018-09-03T00:47:38.598Z,100361.80
2018-09-03T00:50:09.487Z,100365.64
2018-09-03T00:52:40.415Z,100370.64
2018-09-03T00:55:11.524Z,100373.48
2018-09-03T00:57:42.449Z,100371.30
2018-09-03T01:00:13.443Z,100374.69
2018-09-03T01:02:44.421Z,100360.77
2018-09-03T01:05:15.474Z,100351.96
2018-09-03T01:07:46.435Z,100352.13
2018-09-03T01:10:17.447Z,100354.84
2018-09-03T01:12:48.412Z,100363.02
2018-09-03T01:15:19.465Z,100357.48
2018-09-03T01:17:50.409Z,100366.48
2018-09-03T01:20:21.420Z,100365.66
2018-09-03T01:22:52.426Z,100356.63
2018-09-03T01:25:23.472Z,100356.00
2018-09-03T01:27:54.381Z,100343.95
2018-09-03T01:30:25.452Z,100353.66
2018-09-03T01:32:56.423Z,100360.61
2018-09-03T01:35:27.438Z,100368.14
2018-09-03T01:37:58.502Z,100371.64
2018-09-03T01:40:29.478Z,100374.62
2018-09-03T01:43:00.437Z,100362.97
2018-09-03T01:45:31.434Z,100356.25
2018-09-03T01:48:02.392Z,100358.91
2018-09-03T01:50:33.395Z,100364.38
2018-09-03T01:53:04.368Z,100362.92
2018-09-03T01:55:35.361Z,100365.93
2018-09-03T01:58:06.385Z,100354.95
2018-09-03T02:00:37.412Z,100347.88
2018-09-03T02:03:08.457Z,100353.06
2018-09-03T02:05:39.448Z,100350.43
2018-09-03T02:08:10.381Z,100352.59
2018-09-03T02:10:41.405Z,100352.75
2018-09-03T02:13:12.412Z,100344.58
2018-09-03T02:15:43.482Z,100336.24
2018-09-03T02:18:14.411Z,100339.92
2018-09-03T02:20:45.414Z,100345.57
2018-09-03T02:23:16.388Z,100351.58
2018-09-03T02:25:47.445Z,100339.27
2018-09-03T02:28:18.396Z,100344.25
2018-09-03T02:30:49.443Z,100343.95
2018-09-03T02:33:20.472Z,100349.43
2018-09-03T02:35:51.482Z,100345.91
2018-09-03T02:38:22.424Z,100349.09
2018-09-03T02:40:53.461Z,100349.27
2018-09-03T02:43:24.393Z,100344.58
2018-09-03T02:45:55.481Z,100347.27
2018-09-03T02:48:26.453Z,100348.93
2018-09-03T02:50:57.447Z,100356.08
2018-09-03T02:53:28.457Z,100352.97
2018-09-03T02:55:59.491Z,100351.43
2018-09-03T02:58:30.390Z,100340.44
2018-09-03T03:01:01.472Z,100337.55
2018-09-03T03:03:32.421Z,100337.55
2018-09-03T03:06:03.425Z,100338.83
2018-09-03T03:08:34.410Z,100336.52
2018-09-03T03:11:46.486Z,100327.72
2018-09-03T03:14:17.471Z,100315.37
2018-09-03T03:16:48.443Z,100311.22
2018-09-03T03:19:19.413Z,100315.70
2018-09-03T03:21:50.432Z,100313.55
2018-09-03T03:24:21.474Z,100301.88
2018-09-03T03:26:52.471Z,100289.52
2018-09-03T03:29:23.394Z,100278.48
2018-09-03T03:31:54.409Z,100279.14
2018-09-03T03:34:25.420Z,100272.34
2018-09-03T03:36:56.514Z,100263.17
2018-09-03T03:39:27.397Z,100259.66
2018-09-03T03:41:58.611Z,100253.14
2018-09-03T03:44:29.468Z,100254.00
2018-09-03T03:47:01.410Z,100247.97
2018-09-03T03:49:32.502Z,100236.66
2018-09-03T03:52:03.553Z,100238.81
2018-09-03T03:54:34.465Z,100250.15
2018-09-03T03:57:05.677Z,100248.16
2018-09-03T03:59:36.465Z,100247.85
2018-09-03T04:02:07.638Z,100245.19
2018-09-03T04:04:38.502Z,100249.86
2018-09-03T04:07:09.488Z,100254.20
2018-09-03T04:09:40.650Z,100256.19
2018-09-03T04:12:11.478Z,100247.84
2018-09-03T04:14:42.518Z,100258.86
2018-09-03T04:17:13.474Z,100259.53
2018-09-03T04:19:48.281Z,100254.21
2018-09-03T04:22:19.345Z,100263.20
2018-09-03T04:24:50.350Z,100265.41
2018-09-03T04:27:21.378Z,100257.40
2018-09-03T04:29:52.444Z,100254.57
2018-09-03T04:32:23.847Z,100248.55
2018-09-03T04:34:54.541Z,100237.05
2018-09-03T04:37:25.442Z,100237.53
2018-09-03T04:39:56.570Z,100246.22
2018-09-03T04:42:27.481Z,100244.19
2018-09-03T04:44:58.460Z,100246.89
2018-09-03T04:47:29.435Z,100249.89
2018-09-03T04:50:00.463Z,100254.22
2018-09-03T04:52:31.475Z,100250.39
2018-09-03T04:55:02.548Z,100248.06
2018-09-03T04:57:33.468Z,100247.37
2018-09-03T05:00:05.225Z,100253.91
2018-09-03T05:02:36.350Z,100255.39
2018-09-03T05:05:07.391Z,100259.56
2018-09-03T05:07:38.376Z,100263.58
2018-09-03T05:10:09.446Z,100272.25
2018-09-03T05:12:40.261Z,100279.26
2018-09-03T05:15:11.343Z,100281.25
2018-09-03T05:17:42.442Z,100278.06
2018-09-03T05:20:13.481Z,100268.40
2018-09-03T05:22:44.428Z,100278.77
2018-09-03T05:25:15.530Z,100270.93
2018-09-03T05:27:46.437Z,100269.75
2018-09-03T05:30:17.521Z,100272.59
2018-09-03T05:32:48.459Z,100270.59
2018-09-03T05:35:19.535Z,100268.26
2018-09-03T05:37:50.486Z,100269.94
2018-09-03T05:40:21.437Z,100271.28
2018-09-03T05:42:52.507Z,100268.25
2018-09-03T05:45:23.465Z,100265.94
2018-09-03T05:47:54.598Z,100270.09
2018-09-03T05:50:25.562Z,100259.56
2018-09-03T05:52:56.431Z,100272.94
2018-09-03T05:55:27.471Z,100264.58
2018-09-03T05:57:58.455Z,100266.94
2018-09-03T06:00:29.432Z,100265.09
2018-09-03T06:03:00.434Z,100260.91
2018-09-03T06:05:31.468Z,100258.92
2018-09-03T06:08:02.536Z,100259.23
2018-09-03T06:10:33.440Z,100261.59
2018-09-03T06:13:04.457Z,100265.92
2018-09-03T06:15:35.443Z,100269.92
2018-09-03T06:18:06.586Z,100271.94
2018-09-03T06:20:37.492Z,100256.26
2018-09-03T06:23:08.498Z,100247.22
2018-09-03T06:25:39.437Z,100252.91
2018-09-03T06:28:10.614Z,100247.57
2018-09-03T06:30:41.470Z,100249.23
2018-09-03T06:33:12.451Z,100249.40
2018-09-03T06:35:43.509Z,100247.56
2018-09-03T06:38:14.473Z,100246.41
2018-09-03T06:40:45.506Z,100244.90
2018-09-03T06:46:02.465Z,100246.23
2018-09-03T06:48:33.438Z,100253.76
2018-09-03T06:51:04.478Z,100258.25
2018-09-03T06:53:35.636Z,100248.55
2018-09-03T06:56:06.706Z,100240.36
2018-09-03T06:58:37.553Z,100241.52
2018-09-03T07:01:08.793Z,100240.36
2018-09-03T07:03:40.000Z,100239.16
2018-09-03T07:06:11.345Z,100244.23
2018-09-03T07:08:42.442Z,100244.69
2018-09-03T07:11:13.411Z,100250.69
2018-09-03T07:13:44.450Z,100248.20
2018-09-03T07:16:15.484Z,100246.16
2018-09-03T07:18:46.538Z,100248.51
2018-09-03T07:21:17.421Z,100242.85
2018-09-03T07:23:48.504Z,100248.51
2018-09-03T07:26:19.496Z,100250.87
2018-09-03T07:28:50.419Z,100259.88
2018-09-03T07:31:21.982Z,100257.73
2018-09-03T07:33:53.213Z,100252.11
2018-09-03T07:36:24.289Z,100243.16
2018-09-03T07:38:55.371Z,100246.82
2018-09-03T07:41:26.389Z,100248.52
2018-09-03T07:43:57.456Z,100254.03
2018-09-03T07:46:28.453Z,100248.33
2018-09-03T07:48:59.452Z,100239.75
2018-09-03T07:51:30.437Z,100246.07
2018-09-03T07:54:01.450Z,100241.94
2018-09-03T07:56:32.497Z,100239.41
2018-09-03T07:59:03.468Z,100237.40
2018-09-03T08:01:34.508Z,100239.08
2018-09-03T08:04:05.477Z,100235.74
2018-09-03T08:06:36.487Z,100238.34
2018-09-03T08:09:11.290Z,100233.37
2018-09-03T08:11:42.340Z,100229.29
2018-09-03T08:14:13.351Z,100223.06
2018-09-03T08:16:44.403Z,100221.89
2018-09-03T08:19:15.434Z,100216.20
2018-09-03T08:21:46.424Z,100217.27
2018-09-03T08:24:17.481Z,100216.53
2018-09-03T08:26:48.442Z,100217.54
2018-09-03T08:29:19.645Z,100215.19
2018-09-03T08:31:50.473Z,100210.47
2018-09-03T08:34:21.476Z,100216.96
2018-09-03T08:36:52.433Z,100215.69
2018-09-03T08:39:24.505Z,100215.33
2018-09-03T08:41:55.460Z,100215.88
2018-09-03T08:44:26.442Z,100215.17
2018-09-03T08:46:57.448Z,100213.31
2018-09-03T08:49:28.442Z,100218.94
2018-09-03T08:51:59.405Z,100215.88
2018-09-03T08:54:30.454Z,100217.92
2018-09-03T08:57:01.405Z,100216.35
2018-09-03T08:59:32.418Z,100213.58
2018-09-03T09:02:03.404Z,100218.25
2018-09-03T09:04:34.457Z,100218.78
2018-09-03T09:07:05.546Z,100217.13
2018-09-03T09:09:36.423Z,100215.92
2018-09-03T09:12:07.472Z,100209.94
2018-09-03T09:14:38.472Z,100204.22
2018-09-03T09:17:09.429Z,100200.47
2018-09-03T09:19:40.432Z,100189.34
2018-09-03T09:22:11.421Z,100190.61
2018-09-03T09:24:42.456Z,100186.53
2018-09-03T09:27:13.533Z,100191.62
2018-09-03T09:29:44.473Z,100188.67
2018-09-03T09:32:15.422Z,100187.38
2018-09-03T09:34:46.425Z,100187.94
2018-09-03T09:37:17.509Z,100187.28
2018-09-03T09:39:48.492Z,100192.42
2018-09-03T09:42:19.457Z,100190.39
2018-09-03T09:44:50.482Z,100191.30
2018-09-03T09:47:21.441Z,100191.39
2018-09-03T09:49:53.340Z,100193.14
2018-09-03T09:52:24.350Z,100198.14
2018-09-03T09:54:55.378Z,100189.98
2018-09-03T09:57:26.369Z,100189.97
2018-09-03T09:59:57.406Z,100189.90
2018-09-03T10:02:28.857Z,100180.09
2018-09-03T10:04:59.633Z,100173.20
2018-09-03T10:07:30.493Z,100170.16
2018-09-03T10:10:01.424Z,100175.77
2018-09-03T10:12:33.401Z,100164.89
2018-09-03T10:15:04.450Z,100169.02
2018-09-03T10:17:35.485Z,100169.02
2018-09-03T10:20:07.378Z,100169.31
2018-09-03T10:22:38.392Z,100165.78
2018-09-03T10:25:09.429Z,100170.91
2018-09-03T10:27:40.435Z,100170.71
2018-09-03T10:30:11.469Z,100172.45
2018-09-03T10:32:42.446Z,100177.02
2018-09-03T10:35:13.404Z,100174.28
2018-09-03T10:37:44.429Z,100169.06
2018-09-03T10:40:15.525Z,100171.16
2018-09-03T10:42:46.450Z,100169.51
2018-09-03T10:45:17.475Z,100162.84
2018-09-03T10:47:48.457Z,100163.24
2018-09-03T10:50:19.446Z,100157.60
2018-09-03T10:52:50.465Z,100151.84
2018-09-03T10:55:21.467Z,100145.05
2018-09-03T10:57:52.384Z,100140.08
2018-09-03T11:00:23.400Z,100135.73
2018-09-03T11:02:54.428Z,100136.94
2018-09-03T11:05:25.475Z,100140.46
2018-09-03T11:07:56.437Z,100137.34
2018-09-03T11:10:27.435Z,100136.75
2018-09-03T11:12:58.514Z,100143.75
2018-09-03T11:15:29.458Z,100137.89
2018-09-03T11:18:00.461Z,100138.17
2018-09-03T11:20:31.589Z,100137.82
2018-09-03T11:23:02.513Z,100134.92
2018-09-03T11:25:34.462Z,100136.91
2018-09-03T11:28:05.468Z,100137.88
2018-09-03T11:30:36.493Z,100130.88
2018-09-03T11:33:07.453Z,100135.44
2018-09-03T11:35:38.477Z,100136.16
2018-09-03T11:38:09.451Z,100139.59
2018-09-03T11:40:40.506Z,100136.95
2018-09-03T11:43:11.414Z,100137.10
2018-09-03T11:45:51.080Z,100137.17
2018-09-03T11:48:26.019Z,100136.94
2018-09-03T11:50:59.231Z,100134.28
2018-09-03T11:53:32.508Z,100132.34
2018-09-03T11:56:05.070Z,100139.16
2018-09-03T11:58:36.871Z,100127.23
2018-09-03T12:01:14.761Z,100134.11
2018-09-03T12:03:50.275Z,100134.11
2018-09-03T12:06:28.821Z,100131.09
2018-09-03T12:08:59.549Z,100129.09
2018-09-03T12:11:35.288Z,100135.55
2018-09-03T12:14:16.234Z,100130.87
2018-09-03T12:16:55.041Z,100132.52
2018-09-03T12:19:35.715Z,100128.00
2018-09-03T12:22:14.551Z,100130.03
2018-09-03T12:24:48.317Z,100128.05
2018-09-03T12:27:20.496Z,100132.45
2018-09-03T12:29:55.350Z,100133.93
2018-09-03T12:32:27.407Z,100135.64
2018-09-03T12:34:58.466Z,100132.79
2018-09-03T12:37:30.392Z,100130.69
2018-09-03T12:40:02.337Z,100127.09
2018-09-03T12:42:39.980Z,100126.84
2018-09-03T12:45:19.815Z,100124.67
2018-09-03T12:48:00.504Z,100119.14
2018-09-03T12:50:37.985Z,100116.11
2018-09-03T12:53:10.325Z,100114.28
2018-09-03T12:55:44.062Z,100113.53
2018-09-03T12:58:25.534Z,100111.39
2018-09-03T13:01:00.739Z,100114.02
2018-09-03T13:03:39.836Z,100116.95
2018-09-03T13:06:15.010Z,100121.20
2018-09-03T13:08:51.243Z,100112.70
2018-09-03T13:14:21.258Z,100109.58
2018-09-03T13:16:58.459Z,100109.20
2018-09-03T13:22:13.325Z,100109.71
2018-09-03T13:24:45.755Z,100113.48
2018-09-03T13:27:19.395Z,100111.53
2018-09-03T13:29:51.800Z,100110.53
2018-09-03T13:32:26.205Z,100105.88
2018-09-03T13:35:00.524Z,100102.12
2018-09-03T13:37:33.067Z,100103.89
2018-09-03T13:40:07.521Z,100102.85
2018-09-03T13:42:38.922Z,100097.75
2018-09-03T13:45:09.906Z,100088.12
2018-09-03T13:47:41.630Z,100086.28
2018-09-03T13:50:12.501Z,100085.67
2018-09-03T13:52:43.433Z,100085.67
2018-09-03T13:55:15.022Z,100084.61
2018-09-03T13:57:46.289Z,100090.45
2018-09-03T14:00:17.553Z,100085.59
2018-09-03T14:02:48.511Z,100093.35
2018-09-03T14:05:19.455Z,100082.34
2018-09-03T14:07:50.451Z,100084.19
2018-09-03T14:10:21.476Z,100078.90
2018-09-03T14:12:52.619Z,100080.72
2018-09-03T14:15:23.471Z,100074.48
2018-09-03T14:17:54.428Z,100073.27
2018-09-03T14:20:25.503Z,100071.75
2018-09-03T14:22:56.589Z,100071.25
2018-09-03T14:25:27.760Z,100074.19
2018-09-03T14:27:58.797Z,100073.98
2018-09-03T14:30:30.296Z,100067.09
2018-09-03T14:33:01.358Z,100063.08
2018-09-03T14:35:32.371Z,100063.77
2018-09-03T14:38:03.371Z,100063.25
2018-09-03T14:40:34.486Z,100065.83
2018-09-03T14:43:05.525Z,100069.27
2018-09-03T14:45:36.425Z,100062.88
2018-09-03T14:48:07.458Z,100068.30
2018-09-03T14:50:38.485Z,100066.20
2018-09-03T14:53:09.454Z,100070.38
2018-09-03T14:55:40.498Z,100071.21
2018-09-03T14:58:15.258Z,100064.81
2018-09-03T15:00:47.182Z,100069.74
2018-09-03T15:03:20.983Z,100068.59
2018-09-03T15:05:52.595Z,100075.12
2018-09-03T15:08:24.621Z,100069.27
2018-09-03T15:10:57.294Z,100073.42
2018-09-03T15:13:33.270Z,100074.06
2018-09-03T15:16:10.314Z,100073.43
2018-09-03T15:18:44.472Z,100068.55
2018-09-03T15:21:20.767Z,100068.60
2018-09-03T15:23:55.067Z,100069.11
2018-09-03T15:26:26.432Z,100063.42
2018-09-03T15:28:57.443Z,100061.41
2018-09-03T15:31:28.386Z,100064.56
2018-09-03T15:33:59.466Z,100054.72
2018-09-03T15:36:30.594Z,100060.53
2018-09-03T15:39:01.471Z,100056.27
2018-09-03T15:41:32.515Z,100053.70
2018-09-03T15:44:03.481Z,100053.46
2018-09-03T15:46:34.582Z,100054.97
2018-09-03T15:49:05.564Z,100055.35
2018-09-03T15:51:36.465Z,100054.97
2018-09-03T15:54:07.472Z,100050.63
2018-09-03T15:56:38.636Z,100052.09
2018-09-03T15:59:09.489Z,100056.00
2018-09-03T16:04:24.683Z,100052.80
2018-09-03T16:06:55.582Z,100060.31
2018-09-03T16:09:41.315Z,100054.28
2018-09-03T16:12:20.298Z,100063.91
2018-09-03T16:14:53.784Z,100062.36
2018-09-03T16:17:29.277Z,100064.42
2018-09-03T16:20:02.748Z,100068.91
2018-09-03T16:24:53.352Z,100068.34
2018-09-03T16:27:24.462Z,100062.86
2018-09-03T16:29:55.503Z,100063.89
2018-09-03T16:32:26.425Z,100062.92
2018-09-03T16:34:57.477Z,100068.15
2018-09-03T16:37:28.453Z,100060.00
2018-09-03T16:39:59.487Z,100058.30
2018-09-03T16:42:30.444Z,100063.10
2018-09-03T16:45:01.391Z,100062.45
2018-09-03T16:48:18.500Z,100065.85
2018-09-03T16:50:49.519Z,100056.92
2018-09-03T16:53:20.477Z,100064.03
2018-09-03T16:55:51.445Z,100058.09
2018-09-03T16:58:22.501Z,100060.05
2018-09-03T17:00:53.528Z,100059.88
2018-09-03T17:03:24.619Z,100059.61
2018-09-03T17:05:55.563Z,100051.11
2018-09-03T17:08:26.695Z,100054.41
2018-09-03T17:10:57.603Z,100058.57
2018-09-03T17:13:28.528Z,100057.89
2018-09-03T17:15:59.457Z,100057.45
2018-09-03T17:18:30.513Z,100055.98
2018-09-03T17:21:07.300Z,100051.20
2018-09-03T17:23:38.317Z,100052.02
2018-09-03T17:26:19.641Z,100052.61
2018-09-03T17:28:55.343Z,100056.51
2018-09-03T17:31:27.214Z,100049.66
2018-09-03T17:33:58.452Z,100054.06
2018-09-03T17:36:29.606Z,100053.94
2018-09-03T17:39:00.580Z,100062.32
2018-09-03T17:41:31.520Z,100061.95
2018-09-03T17:44:02.494Z,100066.56
2018-09-03T17:46:33.697Z,100064.50
2018-09-03T17:49:04.664Z,100064.88
2018-09-03T17:51:35.802Z,100069.63
2018-09-03T17:54:06.693Z,100069.73
2018-09-03T17:56:40.241Z,100072.18
2018-09-03T17:59:11.362Z,100077.41
2018-09-03T18:01:42.373Z,100070.52
2018-09-03T18:04:13.413Z,100076.03
2018-09-03T18:06:44.492Z,100077.17
2018-09-03T18:09:15.430Z,100071.17
2018-09-03T18:11:46.587Z,100071.43
2018-09-03T18:14:17.452Z,100079.42
2018-09-03T18:16:48.441Z,100075.34
2018-09-03T18:19:19.401Z,100071.03
2018-09-03T18:21:50.499Z,100067.34
2018-09-03T18:24:21.443Z,100075.84
2018-09-03T18:26:52.372Z,100067.91
2018-09-03T18:29:23.376Z,100071.56
2018-09-03T18:31:54.417Z,100078.34
2018-09-03T18:34:25.406Z,100073.03
2018-09-03T18:36:56.426Z,100081.72
2018-09-03T18:39:27.389Z,100070.06
2018-09-03T18:41:58.762Z,100074.59
2018-09-03T18:44:29.513Z,100072.09
2018-09-03T18:47:00.408Z,100076.18
2018-09-03T18:49:31.402Z,100079.42
2018-09-03T18:52:02.445Z,100084.48
2018-09-03T18:54:33.413Z,100091.58
2018-09-03T18:57:04.398Z,100092.33
2018-09-03T18:59:35.390Z,100097.20
2018-09-03T19:02:06.497Z,100087.36
2018-09-03T19:04:37.511Z,100097.69
2018-09-03T19:07:08.535Z,100097.83
2018-09-03T19:09:39.526Z,100100.30
2018-09-03T19:12:11.326Z,100100.55
2018-09-03T19:14:42.371Z,100094.34
2018-09-03T19:17:13.450Z,100096.92
2018-09-03T19:19:44.506Z,100101.18
2018-09-03T19:22:15.511Z,100102.52
2018-09-03T19:24:46.408Z,100102.69
2018-09-03T19:27:17.506Z,100102.91
2018-09-03T19:29:48.776Z,100103.52
2018-09-03T19:32:19.525Z,100097.55
2018-09-03T19:34:50.470Z,100097.28
2018-09-03T19:37:21.486Z,100097.55
2018-09-03T19:39:52.467Z,100101.76
2018-09-03T19:42:23.438Z,100100.80
2018-09-03T19:44:54.499Z,100093.52
2018-09-03T19:47:25.418Z,100090.84
2018-09-03T19:49:56.422Z,100092.66
2018-09-03T19:52:27.437Z,100091.36
2018-09-03T19:54:58.445Z,100097.32
2018-09-03T19:57:29.468Z,100104.64
2018-09-03T20:00:00.535Z,100106.09
2018-09-03T20:02:31.519Z,100094.33
2018-09-03T20:05:02.473Z,100092.53
2018-09-03T20:07:33.480Z,100095.33
2018-09-03T20:10:04.723Z,100092.61
2018-09-03T20:12:35.593Z,100089.86
2018-09-03T20:15:08.514Z,100092.61
2018-09-03T20:17:39.471Z,100099.09
2018-09-03T20:20:10.552Z,100094.50
2018-09-03T20:22:41.512Z,100101.81
2018-09-03T20:25:12.497Z,100091.43
2018-09-03T20:27:43.517Z,100102.38
2018-09-03T20:30:14.532Z,100096.45
2018-09-03T20:32:45.538Z,100092.00
2018-09-03T20:35:16.480Z,100088.75
2018-09-03T20:37:47.473Z,100091.09
2018-09-03T20:40:18.461Z,100091.66
2018-09-03T20:42:49.464Z,100093.31
2018-09-03T20:45:20.475Z,100083.16
2018-09-03T20:47:51.518Z,100091.02
2018-09-03T20:50:22.466Z,100090.48
2018-09-03T20:52:53.433Z,100089.67
2018-09-03T20:55:24.445Z,100091.78
2018-09-03T20:57:55.419Z,100090.41
2018-09-03T21:00:26.405Z,100087.57
2018-09-03T21:02:57.485Z,100088.68
2018-09-03T21:05:28.437Z,100091.94
2018-09-03T21:08:00.201Z,100096.03
2018-09-03T21:10:31.281Z,100095.68
2018-09-03T21:13:02.398Z,100097.48
2018-09-03T21:15:33.420Z,100099.32
2018-09-03T21:18:52.627Z,100097.61
2018-09-03T21:21:23.531Z,100095.07
2018-09-03T21:23:54.469Z,100098.86
2018-09-03T21:26:25.381Z,100089.64
2018-09-03T21:28:56.430Z,100088.10
2018-09-03T21:31:27.427Z,100093.66
2018-09-03T21:33:58.422Z,100084.16
2018-09-03T21:36:29.468Z,100083.81
2018-09-03T21:39:00.449Z,100087.72
2018-09-03T21:41:31.665Z,100088.75
2018-09-03T21:44:02.785Z,100087.38
2018-09-03T21:46:33.681Z,100087.00
2018-09-03T21:49:04.542Z,100085.16
2018-09-03T21:51:35.457Z,100083.44
2018-09-03T21:54:06.533Z,100088.84
2018-09-03T21:56:37.453Z,100094.08
2018-09-03T21:59:08.444Z,100093.73
2018-09-03T22:01:39.501Z,100094.61
2018-09-03T22:04:10.437Z,100090.90
2018-09-03T22:06:41.442Z,100094.53
2018-09-03T22:09:12.438Z,100086.88
2018-09-03T22:11:43.447Z,100085.31
2018-09-03T22:14:14.430Z,100087.45
2018-09-03T22:16:45.500Z,100082.74
2018-09-03T22:19:16.395Z,100086.66
2018-09-03T22:21:47.449Z,100083.66
2018-09-03T22:24:18.489Z,100083.81
2018-09-03T22:26:49.498Z,100089.67
2018-09-03T22:29:20.425Z,100092.88
2018-09-03T22:31:51.433Z,100083.39
2018-09-03T22:34:22.474Z,100083.75
2018-09-03T22:36:53.654Z,100077.69
2018-09-03T22:39:24.481Z,100077.05
2018-09-03T22:41:55.444Z,100070.34
2018-09-03T22:44:26.467Z,100079.03
2018-09-03T22:46:57.601Z,100070.27
2018-09-03T22:49:29.204Z,100071.91
2018-09-03T22:52:00.356Z,100070.69
2018-09-03T22:54:31.562Z,100071.98
2018-09-03T22:57:02.492Z,100069.42
2018-09-03T22:59:33.489Z,100072.44
2018-09-03T23:02:04.505Z,100069.30
2018-09-03T23:04:35.442Z,100070.52
2018-09-03T23:07:06.487Z,100068.64
2018-09-03T23:09:37.475Z,100068.12
2018-09-03T23:12:08.473Z,100069.28
2018-09-03T23:14:39.464Z,100063.92
2018-09-03T23:17:10.457Z,100067.87
2018-09-03T23:19:41.441Z,100070.66
2018-09-03T23:22:12.449Z,100066.86
2018-09-03T23:24:43.446Z,100065.95
2018-09-03T23:27:14.434Z,100068.06
2018-09-03T23:29:45.441Z,100067.91
2018-09-03T23:32:16.405Z,100067.22
2018-09-03T23:34:47.368Z,100072.05
2018-09-03T23:37:18.366Z,100066.36
2018-09-03T23:39:49.450Z,100076.09
2018-09-03T23:42:20.528Z,100077.75
2018-09-03T23:44:51.496Z,100069.78
2018-09-03T23:47:22.534Z,100068.19
2018-09-03T23:49:53.546Z,100062.37
2018-09-03T23:52:24.554Z,100066.01
2018-09-03T23:54:55.541Z,100065.83
2018-09-03T23:57:26.514Z,100068.28
2018-09-03T23:59:57.673Z,100058.66
